sensor_id;sensor_type;location;lat;lon;timestamp;pressure;altitude;pressure_sealevel;temperature;humidity
46267;BME280;31998;48.798;15.066;2022-10-31T00:03:42;96233.97;;;7.17;100.00
46267;BME280;31998;48.798;15.066;2022-10-31T00:06:08;96231.84;;;7.19;100.00
46267;BME280;31998;48.798;15.066;2022-10-31T00:08:34;96229.91;;;7.15;100.00
46267;BME280;31998;48.798;15.066;2022-10-31T00:10:59;96228.25;;;7.08;100.00
46267;BME280;31998;48.798;15.066;2022-10-31T00:13:25;96217.75;;;7.02;100.00
46267;BME280;31998;48.798;15.066;2022-10-31T00:15:50;96228.97;;;6.99;100.00
46267;BME280;31998;48.798;15.066;2022-10-31T00:18:15;96220.84;;;6.89;100.00
46267;BME280;31998;48.798;15.066;2022-10-31T00:20:41;96230.44;;;6.85;100.00
46267;BME280;31998;48.798;15.066;2022-10-31T00:23:06;96234.13;;;6.78;100.00
46267;BME280;31998;48.798;15.066;2022-10-31T00:25:37;96233.56;;;6.76;100.00
46267;BME280;31998;48.798;15.066;2022-10-31T00:28:04;96229.53;;;6.74;100.00
46267;BME280;31998;48.798;15.066;2022-10-31T00:30:30;96236.75;;;6.73;100.00
46267;BME280;31998;48.798;15.066;2022-10-31T00:32:56;96242.03;;;6.68;100.00
46267;BME280;31998;48.798;15.066;2022-10-31T00:35:21;96235.28;;;6.61;100.00
46267;BME280;31998;48.798;15.066;2022-10-31T00:37:46;96235.34;;;6.66;100.00
46267;BME280;31998;48.798;15.066;2022-10-31T00:40:12;96243.59;;;6.64;100.00
46267;BME280;31998;48.798;15.066;2022-10-31T00:42:39;96239.41;;;6.73;100.00
46267;BME280;31998;48.798;15.066;2022-10-31T00:45:10;96236.28;;;6.82;100.00
46267;BME280;31998;48.798;15.066;2022-10-31T00:47:35;96223.16;;;6.80;100.00
46267;BME280;31998;48.798;15.066;2022-10-31T00:50:01;96229.63;;;6.84;100.00
46267;BME280;31998;48.798;15.066;2022-10-31T00:52:26;96226.38;;;6.82;100.00
46267;BME280;31998;48.798;15.066;2022-10-31T00:54:51;96225.03;;;6.79;100.00
46267;BME280;31998;48.798;15.066;2022-10-31T00:57:17;96233.66;;;6.87;100.00
46267;BME280;31998;48.798;15.066;2022-10-31T00:59:42;96239.09;;;6.97;100.00
46267;BME280;31998;48.798;15.066;2022-10-31T01:02:08;96224.97;;;7.01;100.00
46267;BME280;31998;48.798;15.066;2022-10-31T01:04:33;96233.97;;;7.22;100.00
46267;BME280;31998;48.798;15.066;2022-10-31T01:06:58;96214.66;;;7.15;100.00
46267;BME280;31998;48.798;15.066;2022-10-31T01:09:24;96229.16;;;7.19;100.00
46267;BME280;31998;48.798;15.066;2022-10-31T01:11:49;96229.63;;;7.11;100.00
46267;BME280;31998;48.798;15.066;2022-10-31T01:14:14;96231.69;;;7.04;100.00
46267;BME280;31998;48.798;15.066;2022-10-31T01:16:40;96233.97;;;6.90;100.00
46267;BME280;31998;48.798;15.066;2022-10-31T01:19:05;96227.47;;;6.81;100.00
46267;BME280;31998;48.798;15.066;2022-10-31T01:21:30;96234.28;;;6.94;100.00
46267;BME280;31998;48.798;15.066;2022-10-31T01:23:56;96227.69;;;7.06;100.00
46267;BME280;31998;48.798;15.066;2022-10-31T01:26:24;96229.84;;;7.10;100.00
46267;BME280;31998;48.798;15.066;2022-10-31T01:28:52;96224.28;;;7.11;100.00
46267;BME280;31998;48.798;15.066;2022-10-31T01:31:20;96235.84;;;7.22;100.00
46267;BME280;31998;48.798;15.066;2022-10-31T01:33:46;96224.94;;;7.28;100.00
46267;BME280;31998;48.798;15.066;2022-10-31T01:38:50;96224.84;;;7.50;100.00
46267;BME280;31998;48.798;15.066;2022-10-31T01:41:18;96226.91;;;7.43;100.00
46267;BME280;31998;48.798;15.066;2022-10-31T01:43:52;96221.56;;;7.43;100.00
46267;BME280;31998;48.798;15.066;2022-10-31T01:46:22;96221.88;;;7.47;100.00
46267;BME280;31998;48.798;15.066;2022-10-31T01:48:50;96213.34;;;7.55;100.00
46267;BME280;31998;48.798;15.066;2022-10-31T01:51:18;96189.97;;;7.40;100.00
46267;BME280;31998;48.798;15.066;2022-10-31T01:53:45;96215.63;;;7.36;100.00
46267;BME280;31998;48.798;15.066;2022-10-31T01:56:12;96221.72;;;7.26;100.00
46267;BME280;31998;48.798;15.066;2022-10-31T01:58:39;96210.75;;;7.28;100.00
46267;BME280;31998;48.798;15.066;2022-10-31T02:01:05;96210.41;;;7.19;100.00
46267;BME280;31998;48.798;15.066;2022-10-31T02:03:31;96208.53;;;7.20;100.00
46267;BME280;31998;48.798;15.066;2022-10-31T02:05:57;96212.03;;;7.20;100.00
46267;BME280;31998;48.798;15.066;2022-10-31T02:08:30;96205.91;;;7.25;100.00
46267;BME280;31998;48.798;15.066;2022-10-31T02:10:58;96212.56;;;7.17;100.00
46267;BME280;31998;48.798;15.066;2022-10-31T02:13:25;96212.34;;;6.97;100.00
46267;BME280;31998;48.798;15.066;2022-10-31T02:15:56;96210.66;;;6.86;100.00
46267;BME280;31998;48.798;15.066;2022-10-31T02:18:23;96214.41;;;6.85;100.00
46267;BME280;31998;48.798;15.066;2022-10-31T02:21:15;96213.88;;;6.88;100.00
46267;BME280;31998;48.798;15.066;2022-10-31T02:34:20;96216.69;;;7.03;100.00
46267;BME280;31998;48.798;15.066;2022-10-31T02:42:19;96217.13;;;7.22;100.00
46267;BME280;31998;48.798;15.066;2022-10-31T02:45:00;96211.03;;;6.99;100.00
46267;BME280;31998;48.798;15.066;2022-10-31T02:47:33;96203.88;;;6.78;100.00
46267;BME280;31998;48.798;15.066;2022-10-31T02:50:16;96211.34;;;6.76;100.00
46267;BME280;31998;48.798;15.066;2022-10-31T02:52:43;96209.63;;;6.65;100.00
46267;BME280;31998;48.798;15.066;2022-10-31T02:58:06;96216.69;;;6.49;100.00
46267;BME280;31998;48.798;15.066;2022-10-31T03:06:32;96219.19;;;6.34;100.00
46267;BME280;31998;48.798;15.066;2022-10-31T03:09:33;96217.13;;;6.41;100.00
46267;BME280;31998;48.798;15.066;2022-10-31T03:12:10;96213.78;;;6.29;100.00
46267;BME280;31998;48.798;15.066;2022-10-31T03:17:34;96205.69;;;6.23;100.00
46267;BME280;31998;48.798;15.066;2022-10-31T03:20:02;96214.22;;;6.20;100.00
46267;BME280;31998;48.798;15.066;2022-10-31T03:22:31;96211.66;;;6.09;100.00
46267;BME280;31998;48.798;15.066;2022-10-31T03:24:59;96220.59;;;5.97;100.00
46267;BME280;31998;48.798;15.066;2022-10-31T03:27:29;96223.84;;;5.83;100.00
46267;BME280;31998;48.798;15.066;2022-10-31T03:29:57;96220.03;;;5.79;100.00
46267;BME280;31998;48.798;15.066;2022-10-31T03:32:28;96232.50;;;5.90;100.00
46267;BME280;31998;48.798;15.066;2022-10-31T03:34:57;96235.81;;;5.97;100.00
46267;BME280;31998;48.798;15.066;2022-10-31T03:37:26;96222.16;;;5.93;100.00
46267;BME280;31998;48.798;15.066;2022-10-31T03:39:54;96238.25;;;5.98;100.00
46267;BME280;31998;48.798;15.066;2022-10-31T03:42:25;96237.44;;;5.98;100.00
46267;BME280;31998;48.798;15.066;2022-10-31T03:44:57;96233.78;;;6.04;100.00
46267;BME280;31998;48.798;15.066;2022-10-31T03:47:25;96238.75;;;6.17;100.00
46267;BME280;31998;48.798;15.066;2022-10-31T03:49:51;96227.63;;;6.25;100.00
46267;BME280;31998;48.798;15.066;2022-10-31T03:52:44;96239.06;;;6.43;100.00
46267;BME280;31998;48.798;15.066;2022-10-31T03:57:51;96241.06;;;6.31;100.00
46267;BME280;31998;48.798;15.066;2022-10-31T04:00:18;96228.94;;;6.23;100.00
46267;BME280;31998;48.798;15.066;2022-10-31T04:02:50;96217.44;;;6.22;100.00
46267;BME280;31998;48.798;15.066;2022-10-31T04:05:19;96236.28;;;6.33;100.00
46267;BME280;31998;48.798;15.066;2022-10-31T04:07:47;96233.81;;;6.26;100.00
46267;BME280;31998;48.798;15.066;2022-10-31T04:10:15;96243.00;;;6.13;100.00
46267;BME280;31998;48.798;15.066;2022-10-31T04:12:43;96246.66;;;6.07;100.00
46267;BME280;31998;48.798;15.066;2022-10-31T04:15:13;96240.25;;;6.08;100.00
46267;BME280;31998;48.798;15.066;2022-10-31T04:17:40;96238.06;;;6.05;100.00
46267;BME280;31998;48.798;15.066;2022-10-31T04:20:07;96235.81;;;5.97;100.00
46267;BME280;31998;48.798;15.066;2022-10-31T04:22:33;96241.50;;;6.01;100.00
46267;BME280;31998;48.798;15.066;2022-10-31T04:24:58;96241.16;;;5.97;100.00
46267;BME280;31998;48.798;15.066;2022-10-31T04:27:23;96238.56;;;5.85;100.00
46267;BME280;31998;48.798;15.066;2022-10-31T04:29:49;96240.59;;;5.78;100.00
46267;BME280;31998;48.798;15.066;2022-10-31T04:32:14;96246.03;;;5.66;100.00
46267;BME280;31998;48.798;15.066;2022-10-31T04:34:39;96241.50;;;5.67;100.00
46267;BME280;31998;48.798;15.066;2022-10-31T04:37:05;96247.25;;;5.76;100.00
46267;BME280;31998;48.798;15.066;2022-10-31T04:39:30;96244.50;;;5.70;100.00
46267;BME280;31998;48.798;15.066;2022-10-31T04:41:56;96244.94;;;5.62;100.00
46267;BME280;31998;48.798;15.066;2022-10-31T04:44:21;96243.16;;;5.51;100.00
46267;BME280;31998;48.798;15.066;2022-10-31T04:46:46;96240.22;;;5.53;100.00
46267;BME280;31998;48.798;15.066;2022-10-31T04:49:12;96248.03;;;5.54;100.00
46267;BME280;31998;48.798;15.066;2022-10-31T04:51:37;96241.03;;;5.53;100.00
46267;BME280;31998;48.798;15.066;2022-10-31T04:54:02;96239.16;;;5.54;100.00
46267;BME280;31998;48.798;15.066;2022-10-31T04:56:28;96230.59;;;5.68;100.00
46267;BME280;31998;48.798;15.066;2022-10-31T04:58:53;96234.16;;;5.57;100.00
46267;BME280;31998;48.798;15.066;2022-10-31T05:01:19;96239.75;;;5.39;100.00
46267;BME280;31998;48.798;15.066;2022-10-31T05:03:44;96236.59;;;5.25;100.00
46267;BME280;31998;48.798;15.066;2022-10-31T05:06:09;96235.47;;;5.21;100.00
46267;BME280;31998;48.798;15.066;2022-10-31T05:08:35;96225.53;;;5.16;100.00
46267;BME280;31998;48.798;15.066;2022-10-31T05:11:04;96227.16;;;5.17;100.00
46267;BME280;31998;48.798;15.066;2022-10-31T05:13:30;96237.47;;;5.14;100.00
46267;BME280;31998;48.798;15.066;2022-10-31T05:15:55;96234.75;;;5.09;100.00
46267;BME280;31998;48.798;15.066;2022-10-31T05:18:21;96238.63;;;5.18;100.00
46267;BME280;31998;48.798;15.066;2022-10-31T05:20:46;96242.81;;;5.14;100.00
46267;BME280;31998;48.798;15.066;2022-10-31T05:23:12;96242.34;;;5.17;100.00
46267;BME280;31998;48.798;15.066;2022-10-31T05:25:39;96245.97;;;5.28;100.00
46267;BME280;31998;48.798;15.066;2022-10-31T05:28:05;96238.38;;;5.20;100.00
46267;BME280;31998;48.798;15.066;2022-10-31T05:30:31;96243.78;;;5.08;100.00
46267;BME280;31998;48.798;15.066;2022-10-31T05:32:56;96238.19;;;4.93;100.00
46267;BME280;31998;48.798;15.066;2022-10-31T05:35:24;96243.38;;;4.99;100.00
46267;BME280;31998;48.798;15.066;2022-10-31T05:37:50;96239.75;;;5.05;100.00
46267;BME280;31998;48.798;15.066;2022-10-31T05:40:17;96249.44;;;5.11;100.00
46267;BME280;31998;48.798;15.066;2022-10-31T05:42:43;96251.56;;;5.09;100.00
46267;BME280;31998;48.798;15.066;2022-10-31T05:45:11;96247.91;;;4.99;100.00
46267;BME280;31998;48.798;15.066;2022-10-31T05:47:36;96246.34;;;4.86;100.00
46267;BME280;31998;48.798;15.066;2022-10-31T05:50:02;96255.56;;;4.95;100.00
46267;BME280;31998;48.798;15.066;2022-10-31T05:52:28;96249.66;;;4.93;100.00
46267;BME280;31998;48.798;15.066;2022-10-31T05:54:53;96254.75;;;4.95;100.00
46267;BME280;31998;48.798;15.066;2022-10-31T05:57:19;96263.66;;;5.00;100.00
46267;BME280;31998;48.798;15.066;2022-10-31T05:59:44;96255.75;;;5.05;100.00
46267;BME280;31998;48.798;15.066;2022-10-31T06:02:09;96256.56;;;5.06;100.00
46267;BME280;31998;48.798;15.066;2022-10-31T06:04:35;96252.44;;;4.98;100.00
46267;BME280;31998;48.798;15.066;2022-10-31T06:07:00;96252.44;;;4.98;100.00
46267;BME280;31998;48.798;15.066;2022-10-31T06:09:26;96263.25;;;5.08;100.00
46267;BME280;31998;48.798;15.066;2022-10-31T06:11:51;96266.03;;;5.13;100.00
46267;BME280;31998;48.798;15.066;2022-10-31T06:14:16;96265.41;;;5.23;100.00
46267;BME280;31998;48.798;15.066;2022-10-31T06:16:42;96279.78;;;5.39;100.00
46267;BME280;31998;48.798;15.066;2022-10-31T06:19:07;96284.81;;;5.52;100.00
46267;BME280;31998;48.798;15.066;2022-10-31T06:21:33;96267.75;;;5.36;100.00
46267;BME280;31998;48.798;15.066;2022-10-31T06:23:58;96281.16;;;5.25;100.00
46267;BME280;31998;48.798;15.066;2022-10-31T06:26:24;96286.84;;;5.28;100.00
46267;BME280;31998;48.798;15.066;2022-10-31T06:28:49;96293.84;;;5.17;100.00
46267;BME280;31998;48.798;15.066;2022-10-31T06:31:14;96291.91;;;5.13;100.00
46267;BME280;31998;48.798;15.066;2022-10-31T06:33:43;96293.59;;;5.19;100.00
46267;BME280;31998;48.798;15.066;2022-10-31T06:36:09;96291.84;;;5.25;100.00
46267;BME280;31998;48.798;15.066;2022-10-31T06:38:35;96291.84;;;5.25;100.00
46267;BME280;31998;48.798;15.066;2022-10-31T06:41:04;96299.94;;;5.30;100.00
46267;BME280;31998;48.798;15.066;2022-10-31T06:43:30;96299.53;;;5.38;100.00
46267;BME280;31998;48.798;15.066;2022-10-31T06:45:56;96307.03;;;5.41;100.00
46267;BME280;31998;48.798;15.066;2022-10-31T06:48:22;96304.97;;;5.43;100.00
46267;BME280;31998;48.798;15.066;2022-10-31T06:50:48;96306.25;;;5.57;100.00
46267;BME280;31998;48.798;15.066;2022-10-31T06:53:13;96306.44;;;5.67;100.00
46267;BME280;31998;48.798;15.066;2022-10-31T06:55:42;96312.47;;;5.80;100.00
46267;BME280;31998;48.798;15.066;2022-10-31T06:58:09;96307.22;;;5.85;100.00
46267;BME280;31998;48.798;15.066;2022-10-31T07:00:34;96315.56;;;6.05;100.00
46267;BME280;31998;48.798;15.066;2022-10-31T07:03:05;96313.66;;;6.22;100.00
46267;BME280;31998;48.798;15.066;2022-10-31T07:05:31;96311.94;;;6.33;100.00
46267;BME280;31998;48.798;15.066;2022-10-31T07:08:02;96304.56;;;6.40;100.00
46267;BME280;31998;48.798;15.066;2022-10-31T07:10:30;96309.81;;;6.57;100.00
46267;BME280;31998;48.798;15.066;2022-10-31T07:12:57;96311.91;;;6.72;100.00
46267;BME280;31998;48.798;15.066;2022-10-31T07:15:24;96321.63;;;6.83;100.00
46267;BME280;31998;48.798;15.066;2022-10-31T07:17:49;96316.16;;;6.95;100.00
46267;BME280;31998;48.798;15.066;2022-10-31T07:20:15;96306.59;;;6.99;100.00
46267;BME280;31998;48.798;15.066;2022-10-31T07:22:40;96314.28;;;7.17;100.00
46267;BME280;31998;48.798;15.066;2022-10-31T07:25:06;96304.66;;;7.21;100.00
46267;BME280;31998;48.798;15.066;2022-10-31T07:27:38;96307.47;;;7.37;100.00
46267;BME280;31998;48.798;15.066;2022-10-31T07:30:05;96310.09;;;7.58;100.00
46267;BME280;31998;48.798;15.066;2022-10-31T07:32:41;96315.59;;;7.79;100.00
46267;BME280;31998;48.798;15.066;2022-10-31T07:35:08;96313.34;;;7.98;100.00
46267;BME280;31998;48.798;15.066;2022-10-31T07:37:33;96310.25;;;8.16;100.00
46267;BME280;31998;48.798;15.066;2022-10-31T07:39:59;96306.03;;;8.30;100.00
46267;BME280;31998;48.798;15.066;2022-10-31T07:42:24;96315.28;;;8.50;100.00
46267;BME280;31998;48.798;15.066;2022-10-31T07:44:50;96312.66;;;8.65;100.00
46267;BME280;31998;48.798;15.066;2022-10-31T07:47:15;96303.06;;;8.79;100.00
46267;BME280;31998;48.798;15.066;2022-10-31T07:49:41;96306.91;;;9.04;100.00
46267;BME280;31998;48.798;15.066;2022-10-31T07:52:06;96314.75;;;9.36;100.00
46267;BME280;31998;48.798;15.066;2022-10-31T07:54:32;96304.03;;;9.71;100.00
46267;BME280;31998;48.798;15.066;2022-10-31T07:56:57;96307.50;;;10.02;100.00
46267;BME280;31998;48.798;15.066;2022-10-31T07:59:22;96301.03;;;10.39;100.00
46267;BME280;31998;48.798;15.066;2022-10-31T08:01:48;96311.38;;;10.81;100.00
46267;BME280;31998;48.798;15.066;2022-10-31T08:04:13;96301.84;;;11.09;100.00
46267;BME280;31998;48.798;15.066;2022-10-31T08:06:38;96305.38;;;11.49;100.00
46267;BME280;31998;48.798;15.066;2022-10-31T08:09:04;96305.09;;;11.90;100.00
46267;BME280;31998;48.798;15.066;2022-10-31T08:11:29;96296.56;;;12.36;100.00
46267;BME280;31998;48.798;15.066;2022-10-31T08:13:54;96284.31;;;12.91;100.00
46267;BME280;31998;48.798;15.066;2022-10-31T08:16:20;96279.25;;;13.27;100.00
46267;BME280;31998;48.798;15.066;2022-10-31T08:18:45;96265.31;;;13.39;100.00
46267;BME280;31998;48.798;15.066;2022-10-31T08:21:11;96258.69;;;13.64;100.00
46267;BME280;31998;48.798;15.066;2022-10-31T08:23:36;96260.94;;;13.76;100.00
46267;BME280;31998;48.798;15.066;2022-10-31T08:26:01;96263.50;;;14.00;100.00
46267;BME280;31998;48.798;15.066;2022-10-31T08:28:27;96250.22;;;14.17;100.00
46267;BME280;31998;48.798;15.066;2022-10-31T08:30:52;96244.34;;;14.70;100.00
46267;BME280;31998;48.798;15.066;2022-10-31T08:33:18;96243.72;;;15.01;100.00
46267;BME280;31998;48.798;15.066;2022-10-31T08:35:44;96245.88;;;15.12;100.00
46267;BME280;31998;48.798;15.066;2022-10-31T08:38:11;96242.06;;;15.50;100.00
46267;BME280;31998;48.798;15.066;2022-10-31T08:40:37;96244.19;;;15.97;100.00
46267;BME280;31998;48.798;15.066;2022-10-31T08:43:11;96235.09;;;16.02;100.00
46267;BME280;31998;48.798;15.066;2022-10-31T08:45:36;96233.56;;;15.87;100.00
46267;BME280;31998;48.798;15.066;2022-10-31T08:48:08;96240.38;;;15.98;100.00
46267;BME280;31998;48.798;15.066;2022-10-31T08:50:35;96233.69;;;15.82;100.00
46267;BME280;31998;48.798;15.066;2022-10-31T08:55:27;96227.19;;;16.14;100.00
46267;BME280;31998;48.798;15.066;2022-10-31T08:57:56;96222.22;;;16.56;100.00
46267;BME280;31998;48.798;15.066;2022-10-31T09:00:22;96227.19;;;17.02;100.00
46267;BME280;31998;48.798;15.066;2022-10-31T09:02:47;96214.88;;;17.14;100.00
46267;BME280;31998;48.798;15.066;2022-10-31T09:05:13;96223.13;;;16.43;100.00
46267;BME280;31998;48.798;15.066;2022-10-31T09:07:38;96216.28;;;16.45;100.00
46267;BME280;31998;48.798;15.066;2022-10-31T09:10:04;96215.34;;;16.98;100.00
46267;BME280;31998;48.798;15.066;2022-10-31T09:12:30;96206.88;;;17.08;100.00
46267;BME280;31998;48.798;15.066;2022-10-31T09:14:55;96214.25;;;17.51;100.00
46267;BME280;31998;48.798;15.066;2022-10-31T09:17:20;96217.75;;;17.26;100.00
46267;BME280;31998;48.798;15.066;2022-10-31T09:19:46;96222.88;;;17.19;100.00
46267;BME280;31998;48.798;15.066;2022-10-31T09:22:11;96217.75;;;17.26;100.00
46267;BME280;31998;48.798;15.066;2022-10-31T09:24:36;96214.56;;;17.76;100.00
46267;BME280;31998;48.798;15.066;2022-10-31T09:27:02;96218.50;;;18.13;100.00
46267;BME280;31998;48.798;15.066;2022-10-31T09:29:27;96216.72;;;18.26;100.00
46267;BME280;31998;48.798;15.066;2022-10-31T09:31:52;96216.56;;;18.60;100.00
46267;BME280;31998;48.798;15.066;2022-10-31T09:34:18;96222.28;;;18.29;100.00
46267;BME280;31998;48.798;15.066;2022-10-31T09:36:43;96229.28;;;18.86;100.00
46267;BME280;31998;48.798;15.066;2022-10-31T09:39:09;96219.97;;;18.87;100.00
46267;BME280;31998;48.798;15.066;2022-10-31T09:47:24;96217.72;;;18.89;100.00
46267;BME280;31998;48.798;15.066;2022-10-31T09:50:13;96209.81;;;19.17;100.00
46267;BME280;31998;48.798;15.066;2022-10-31T09:52:48;96218.47;;;18.98;100.00
46267;BME280;31998;48.798;15.066;2022-10-31T09:55:23;96213.56;;;18.44;100.00
46267;BME280;31998;48.798;15.066;2022-10-31T09:57:52;96214.94;;;18.21;100.00
46267;BME280;31998;48.798;15.066;2022-10-31T10:00:21;96209.75;;;18.46;100.00
46267;BME280;31998;48.798;15.066;2022-10-31T10:02:59;96215.59;;;18.56;100.00
46267;BME280;31998;48.798;15.066;2022-10-31T10:05:36;96201.13;;;18.64;100.00
46267;BME280;31998;48.798;15.066;2022-10-31T10:08:18;96213.66;;;18.95;100.00
46267;BME280;31998;48.798;15.066;2022-10-31T10:14:30;96210.13;;;18.94;100.00
46267;BME280;31998;48.798;15.066;2022-10-31T10:20:00;96216.19;;;18.79;100.00
46267;BME280;31998;48.798;15.066;2022-10-31T10:30:38;96205.50;;;19.78;100.00
46267;BME280;31998;48.798;15.066;2022-10-31T10:33:28;96199.19;;;19.99;100.00
46267;BME280;31998;48.798;15.066;2022-10-31T10:36:01;96194.19;;;20.13;100.00
46267;BME280;31998;48.798;15.066;2022-10-31T10:40:54;96184.00;;;20.47;100.00
46267;BME280;31998;48.798;15.066;2022-10-31T10:43:30;96184.50;;;20.49;100.00
46267;BME280;31998;48.798;15.066;2022-10-31T10:46:15;96184.50;;;20.61;100.00
46267;BME280;31998;48.798;15.066;2022-10-31T10:49:17;96181.75;;;20.61;100.00
46267;BME280;31998;48.798;15.066;2022-10-31T10:55:09;96185.81;;;20.43;100.00
46267;BME280;31998;48.798;15.066;2022-10-31T11:00:41;96173.28;;;20.91;100.00
46267;BME280;31998;48.798;15.066;2022-10-31T11:03:07;96170.97;;;21.05;100.00
46267;BME280;31998;48.798;15.066;2022-10-31T11:06:15;96176.56;;;21.21;100.00
46267;BME280;31998;48.798;15.066;2022-10-31T11:08:31;96179.19;;;21.29;100.00
46267;BME280;31998;48.798;15.066;2022-10-31T11:11:06;96164.75;;;21.45;100.00
46267;BME280;31998;48.798;15.066;2022-10-31T11:13:33;96163.69;;;21.09;100.00
46267;BME280;31998;48.798;15.066;2022-10-31T11:16:06;96162.50;;;21.22;100.00
46267;BME280;31998;48.798;15.066;2022-10-31T11:18:34;96155.69;;;21.28;100.00
46267;BME280;31998;48.798;15.066;2022-10-31T11:21:03;96159.53;;;21.39;100.00
46267;BME280;31998;48.798;15.066;2022-10-31T11:23:30;96150.59;;;21.43;100.00
46267;BME280;31998;48.798;15.066;2022-10-31T11:26:00;96160.41;;;21.44;100.00
46267;BME280;31998;48.798;15.066;2022-10-31T11:28:28;96151.94;;;21.49;100.00
46267;BME280;31998;48.798;15.066;2022-10-31T11:31:07;96148.53;;;21.52;100.00
46267;BME280;31998;48.798;15.066;2022-10-31T11:36:04;96139.16;;;21.53;100.00
46267;BME280;31998;48.798;15.066;2022-10-31T11:38:43;96139.06;;;21.49;100.00
46267;BME280;31998;48.798;15.066;2022-10-31T11:41:15;96135.47;;;21.61;100.00
46267;BME280;31998;48.798;15.066;2022-10-31T11:43:54;96135.59;;;21.80;100.00
46267;BME280;31998;48.798;15.066;2022-10-31T11:46:44;96128.16;;;21.81;100.00
46267;BME280;31998;48.798;15.066;2022-10-31T11:52:20;96127.13;;;21.85;100.00
46267;BME280;31998;48.798;15.066;2022-10-31T11:57:25;96122.31;;;21.66;100.00
46267;BME280;31998;48.798;15.066;2022-10-31T11:59:56;96119.34;;;21.87;100.00
46267;BME280;31998;48.798;15.066;2022-10-31T12:02:23;96124.03;;;22.03;100.00
46267;BME280;31998;48.798;15.066;2022-10-31T12:04:55;96122.25;;;21.94;100.00
46267;BME280;31998;48.798;15.066;2022-10-31T12:07:23;96113.06;;;22.03;100.00
46267;BME280;31998;48.798;15.066;2022-10-31T12:09:49;96104.44;;;22.16;100.00
46267;BME280;31998;48.798;15.066;2022-10-31T12:20:37;96098.22;;;22.35;100.00
46267;BME280;31998;48.798;15.066;2022-10-31T12:26:19;96096.09;;;22.44;100.00
46267;BME280;31998;48.798;15.066;2022-10-31T12:29:18;96086.72;;;22.45;100.00
46267;BME280;31998;48.798;15.066;2022-10-31T12:32:03;96084.69;;;22.42;100.00
46267;BME280;31998;48.798;15.066;2022-10-31T12:45:30;96080.25;;;22.54;100.00
46267;BME280;31998;48.798;15.066;2022-10-31T12:58:45;96081.06;;;22.07;100.00
46267;BME280;31998;48.798;15.066;2022-10-31T13:01:28;96076.69;;;22.18;100.00
46267;BME280;31998;48.798;15.066;2022-10-31T13:03:58;96072.53;;;22.24;100.00
46267;BME280;31998;48.798;15.066;2022-10-31T13:06:40;96072.31;;;22.33;100.00
46267;BME280;31998;48.798;15.066;2022-10-31T13:09:10;96058.78;;;22.08;100.00
46267;BME280;31998;48.798;15.066;2022-10-31T13:11:40;96055.78;;;21.82;100.00
46267;BME280;31998;48.798;15.066;2022-10-31T13:16:47;96057.38;;;21.99;100.00
46267;BME280;31998;48.798;15.066;2022-10-31T13:19:18;96049.31;;;21.90;100.00
46267;BME280;31998;48.798;15.066;2022-10-31T13:22:05;96054.00;;;21.89;100.00
46267;BME280;31998;48.798;15.066;2022-10-31T13:27:27;96057.09;;;22.04;100.00
46267;BME280;31998;48.798;15.066;2022-10-31T13:30:04;96056.41;;;21.91;100.00
46267;BME280;31998;48.798;15.066;2022-10-31T13:32:49;96046.06;;;21.84;100.00
46267;BME280;31998;48.798;15.066;2022-10-31T13:35:27;96057.19;;;21.91;100.00
46267;BME280;31998;48.798;15.066;2022-10-31T13:38:11;96046.94;;;21.88;100.00
46267;BME280;31998;48.798;15.066;2022-10-31T13:40:45;96051.09;;;21.82;100.00
46267;BME280;31998;48.798;15.066;2022-10-31T13:43:23;96048.41;;;21.70;100.00
46267;BME280;31998;48.798;15.066;2022-10-31T13:45:54;96041.78;;;21.71;100.00
46267;BME280;31998;48.798;15.066;2022-10-31T13:48:35;96042.31;;;21.77;100.00
46267;BME280;31998;48.798;15.066;2022-10-31T13:51:06;96035.78;;;21.81;100.00
46267;BME280;31998;48.798;15.066;2022-10-31T13:53:45;96036.69;;;21.85;100.00
46267;BME280;31998;48.798;15.066;2022-10-31T13:56:32;96040.13;;;21.82;100.00
46267;BME280;31998;48.798;15.066;2022-10-31T13:59:02;96035.38;;;21.79;100.00
46267;BME280;31998;48.798;15.066;2022-10-31T14:01:28;96030.22;;;21.78;100.00
46267;BME280;31998;48.798;15.066;2022-10-31T14:09:59;96027.31;;;21.55;100.00
46267;BME280;31998;48.798;15.066;2022-10-31T14:15:24;96027.94;;;21.20;100.00
46267;BME280;31998;48.798;15.066;2022-10-31T14:17:56;96026.63;;;21.02;100.00
46267;BME280;31998;48.798;15.066;2022-10-31T14:22:57;96022.56;;;20.43;100.00
46267;BME280;31998;48.798;15.066;2022-10-31T14:25:35;96026.13;;;20.19;100.00
46267;BME280;31998;48.798;15.066;2022-10-31T14:28:05;96026.03;;;20.03;100.00
46267;BME280;31998;48.798;15.066;2022-10-31T14:30:51;96014.97;;;19.75;100.00
46267;BME280;31998;48.798;15.066;2022-10-31T14:33:19;96013.25;;;19.59;100.00
46267;BME280;31998;48.798;15.066;2022-10-31T14:36:04;96019.00;;;19.45;100.00
46267;BME280;31998;48.798;15.066;2022-10-31T14:50:20;96015.19;;;18.50;100.00
46267;BME280;31998;48.798;15.066;2022-10-31T14:52:50;96013.94;;;18.27;100.00
46267;BME280;31998;48.798;15.066;2022-10-31T14:55:17;96009.06;;;18.11;100.00
46267;BME280;31998;48.798;15.066;2022-10-31T14:58:00;96014.22;;;18.04;100.00
46267;BME280;31998;48.798;15.066;2022-10-31T15:00:28;96024.00;;;17.76;100.00
46267;BME280;31998;48.798;15.066;2022-10-31T15:03:18;96020.03;;;17.56;100.00
46267;BME280;31998;48.798;15.066;2022-10-31T15:05:52;96016.13;;;17.36;100.00
46267;BME280;31998;48.798;15.066;2022-10-31T15:08:32;96011.81;;;17.26;100.00
46267;BME280;31998;48.798;15.066;2022-10-31T15:11:03;96010.44;;;17.03;100.00
46267;BME280;31998;48.798;15.066;2022-10-31T15:13:28;96014.75;;;16.87;100.00